sensor_id;sensor_type;location;lat;lon;timestamp;P1;durP1;ratioP1;P2;durP2;ratioP2
59607;SDS011;45426;44.726;10.390;2022-08-01T00:00:00;2.75;;;2.30;;
59607;SDS011;45426;44.726;10.390;2022-08-01T00:02:28;5.13;;;2.67;;
59607;SDS011;45426;44.726;10.390;2022-08-01T00:04:54;4.43;;;2.50;;
59607;SDS011;45426;44.726;10.390;2022-08-01T00:07:19;3.58;;;2.25;;
59607;SDS011;45426;44.726;10.390;2022-08-01T00:09:45;3.80;;;2.40;;
59607;SDS011;45426;44.726;10.390;2022-08-01T00:12:10;3.92;;;2.40;;
59607;SDS011;45426;44.726;10.390;2022-08-01T00:14:36;4.70;;;2.58;;
59607;SDS011;45426;44.726;10.390;2022-08-01T00:17:02;6.80;;;2.80;;
59607;SDS011;45426;44.726;10.390;2022-08-01T00:19:27;3.78;;;2.55;;
59607;SDS011;45426;44.726;10.390;2022-08-01T00:21:53;3.38;;;2.42;;
59607;SDS011;45426;44.726;10.390;2022-08-01T00:24:18;4.97;;;3.00;;
59607;SDS011;45426;44.726;10.390;2022-08-01T00:26:44;4.97;;;2.42;;
59607;SDS011;45426;44.726;10.390;2022-08-01T00:29:09;3.78;;;2.70;;
59607;SDS011;45426;44.726;10.390;2022-08-01T00:31:34;3.58;;;2.50;;
59607;SDS011;45426;44.726;10.390;2022-08-01T00:34:00;4.15;;;2.60;;
59607;SDS011;45426;44.726;10.390;2022-08-01T00:36:25;3.58;;;2.50;;
59607;SDS011;45426;44.726;10.390;2022-08-01T00:38:51;3.83;;;2.50;;
59607;SDS011;45426;44.726;10.390;2022-08-01T00:41:16;3.85;;;2.60;;
59607;SDS011;45426;44.726;10.390;2022-08-01T00:43:41;4.18;;;2.60;;
59607;SDS011;45426;44.726;10.390;2022-08-01T00:46:07;3.67;;;2.72;;
59607;SDS011;45426;44.726;10.390;2022-08-01T00:48:32;3.33;;;2.47;;
59607;SDS011;45426;44.726;10.390;2022-08-01T00:50:58;3.63;;;2.72;;
59607;SDS011;45426;44.726;10.390;2022-08-01T00:53:23;4.03;;;2.67;;
59607;SDS011;45426;44.726;10.390;2022-08-01T00:55:50;5.40;;;2.63;;
59607;SDS011;45426;44.726;10.390;2022-08-01T00:58:15;3.92;;;2.70;;
59607;SDS011;45426;44.726;10.390;2022-08-01T01:00:41;5.13;;;2.80;;
59607;SDS011;45426;44.726;10.390;2022-08-01T01:03:06;6.15;;;2.70;;
59607;SDS011;45426;44.726;10.390;2022-08-01T01:05:33;4.95;;;2.65;;
59607;SDS011;45426;44.726;10.390;2022-08-01T01:08:08;4.13;;;2.40;;
59607;SDS011;45426;44.726;10.390;2022-08-01T01:10:48;6.32;;;2.95;;
59607;SDS011;45426;44.726;10.390;2022-08-01T01:13:29;3.40;;;2.70;;
59607;SDS011;45426;44.726;10.390;2022-08-01T01:16:06;4.35;;;2.70;;
59607;SDS011;45426;44.726;10.390;2022-08-01T01:18:52;8.25;;;2.80;;
59607;SDS011;45426;44.726;10.390;2022-08-01T01:34:36;3.83;;;2.60;;
59607;SDS011;45426;44.726;10.390;2022-08-01T01:37:04;3.33;;;2.40;;
59607;SDS011;45426;44.726;10.390;2022-08-01T01:39:34;4.45;;;2.45;;
59607;SDS011;45426;44.726;10.390;2022-08-01T01:42:01;4.65;;;2.60;;
59607;SDS011;45426;44.726;10.390;2022-08-01T01:44:29;5.47;;;2.70;;
59607;SDS011;45426;44.726;10.390;2022-08-01T01:46:56;5.45;;;2.80;;
59607;SDS011;45426;44.726;10.390;2022-08-01T01:49:23;5.35;;;2.90;;
59607;SDS011;45426;44.726;10.390;2022-08-01T01:51:51;4.72;;;2.65;;
59607;SDS011;45426;44.726;10.390;2022-08-01T01:54:19;3.58;;;2.40;;
59607;SDS011;45426;44.726;10.390;2022-08-01T01:56:46;4.13;;;2.58;;
59607;SDS011;45426;44.726;10.390;2022-08-01T01:59:15;6.40;;;3.58;;
59607;SDS011;45426;44.726;10.390;2022-08-01T02:01:44;4.22;;;2.90;;
59607;SDS011;45426;44.726;10.390;2022-08-01T02:04:15;4.82;;;2.75;;
59607;SDS011;45426;44.726;10.390;2022-08-01T02:06:42;4.65;;;2.67;;
59607;SDS011;45426;44.726;10.390;2022-08-01T02:09:10;5.32;;;2.78;;
59607;SDS011;45426;44.726;10.390;2022-08-01T02:11:36;4.90;;;2.65;;
59607;SDS011;45426;44.726;10.390;2022-08-01T02:14:03;6.22;;;2.63;;
59607;SDS011;45426;44.726;10.390;2022-08-01T02:16:29;4.00;;;2.60;;
59607;SDS011;45426;44.726;10.390;2022-08-01T02:18:58;6.05;;;2.70;;
59607;SDS011;45426;44.726;10.390;2022-08-01T02:21:29;3.70;;;2.50;;
59607;SDS011;45426;44.726;10.390;2022-08-01T02:24:06;7.13;;;3.08;;
59607;SDS011;45426;44.726;10.390;2022-08-01T02:26:38;5.13;;;2.90;;
59607;SDS011;45426;44.726;10.390;2022-08-01T02:29:07;3.85;;;2.60;;
59607;SDS011;45426;44.726;10.390;2022-08-01T02:31:38;5.28;;;2.60;;
59607;SDS011;45426;44.726;10.390;2022-08-01T02:34:09;5.15;;;2.90;;
59607;SDS011;45426;44.726;10.390;2022-08-01T02:36:38;4.05;;;2.80;;
59607;SDS011;45426;44.726;10.390;2022-08-01T02:39:06;5.55;;;3.00;;
59607;SDS011;45426;44.726;10.390;2022-08-01T02:41:36;4.30;;;2.58;;
59607;SDS011;45426;44.726;10.390;2022-08-01T02:44:06;3.70;;;2.70;;
59607;SDS011;45426;44.726;10.390;2022-08-01T02:46:39;3.28;;;2.55;;
59607;SDS011;45426;44.726;10.390;2022-08-01T02:49:08;4.10;;;2.53;;
59607;SDS011;45426;44.726;10.390;2022-08-01T02:51:36;3.97;;;2.67;;
59607;SDS011;45426;44.726;10.390;2022-08-01T02:54:04;2.85;;;2.42;;
59607;SDS011;45426;44.726;10.390;2022-08-01T03:26:48;6.57;;;3.25;;
59607;SDS011;45426;44.726;10.390;2022-08-01T03:29:17;5.57;;;3.00;;
59607;SDS011;45426;44.726;10.390;2022-08-01T03:31:47;6.70;;;3.50;;
59607;SDS011;45426;44.726;10.390;2022-08-01T03:34:13;5.35;;;3.28;;
59607;SDS011;45426;44.726;10.390;2022-08-01T03:39:25;6.25;;;3.20;;
59607;SDS011;45426;44.726;10.390;2022-08-01T03:41:56;5.15;;;3.20;;
59607;SDS011;45426;44.726;10.390;2022-08-01T03:44:27;4.88;;;3.33;;
59607;SDS011;45426;44.726;10.390;2022-08-01T03:46:59;5.30;;;3.20;;
59607;SDS011;45426;44.726;10.390;2022-08-01T03:49:29;6.28;;;3.45;;
59607;SDS011;45426;44.726;10.390;2022-08-01T03:51:56;5.70;;;3.00;;
59607;SDS011;45426;44.726;10.390;2022-08-01T03:54:24;5.78;;;3.42;;
59607;SDS011;45426;44.726;10.390;2022-08-01T03:56:52;5.63;;;3.38;;
59607;SDS011;45426;44.726;10.390;2022-08-01T03:59:18;6.38;;;3.60;;
59607;SDS011;45426;44.726;10.390;2022-08-01T04:01:45;8.13;;;3.50;;
59607;SDS011;45426;44.726;10.390;2022-08-01T04:04:11;6.10;;;3.35;;
59607;SDS011;45426;44.726;10.390;2022-08-01T04:06:40;6.25;;;3.80;;
59607;SDS011;45426;44.726;10.390;2022-08-01T04:09:07;5.30;;;3.55;;
59607;SDS011;45426;44.726;10.390;2022-08-01T04:11:33;6.63;;;4.00;;
59607;SDS011;45426;44.726;10.390;2022-08-01T04:13:58;6.07;;;3.38;;
59607;SDS011;45426;44.726;10.390;2022-08-01T04:16:24;5.78;;;3.30;;
59607;SDS011;45426;44.726;10.390;2022-08-01T04:18:50;5.43;;;3.15;;
59607;SDS011;45426;44.726;10.390;2022-08-01T04:21:17;6.10;;;3.67;;
59607;SDS011;45426;44.726;10.390;2022-08-01T04:23:46;8.88;;;3.42;;
59607;SDS011;45426;44.726;10.390;2022-08-01T04:26:12;7.28;;;3.80;;
59607;SDS011;45426;44.726;10.390;2022-08-01T04:28:41;10.07;;;3.58;;
59607;SDS011;45426;44.726;10.390;2022-08-01T04:31:09;7.90;;;3.53;;
59607;SDS011;45426;44.726;10.390;2022-08-01T04:33:37;4.90;;;3.10;;
59607;SDS011;45426;44.726;10.390;2022-08-01T04:36:05;6.88;;;2.95;;
59607;SDS011;45426;44.726;10.390;2022-08-01T04:38:33;6.85;;;3.08;;
59607;SDS011;45426;44.726;10.390;2022-08-01T04:41:04;4.30;;;3.00;;
59607;SDS011;45426;44.726;10.390;2022-08-01T04:43:31;6.53;;;3.00;;
59607;SDS011;45426;44.726;10.390;2022-08-01T04:45:58;6.95;;;3.05;;
59607;SDS011;45426;44.726;10.390;2022-08-01T04:48:23;5.43;;;3.15;;
59607;SDS011;45426;44.726;10.390;2022-08-01T04:50:51;7.03;;;3.03;;
59607;SDS011;45426;44.726;10.390;2022-08-01T04:53:16;7.03;;;3.30;;
59607;SDS011;45426;44.726;10.390;2022-08-01T04:55:43;6.95;;;3.20;;
59607;SDS011;45426;44.726;10.390;2022-08-01T04:58:11;4.72;;;2.60;;
59607;SDS011;45426;44.726;10.390;2022-08-01T05:00:37;5.13;;;3.10;;
59607;SDS011;45426;44.726;10.390;2022-08-01T05:03:02;6.30;;;2.92;;
59607;SDS011;45426;44.726;10.390;2022-08-01T05:05:28;4.75;;;2.60;;
59607;SDS011;45426;44.726;10.390;2022-08-01T05:07:55;5.40;;;2.80;;
59607;SDS011;45426;44.726;10.390;2022-08-01T05:10:20;4.20;;;2.80;;
59607;SDS011;45426;44.726;10.390;2022-08-01T05:12:46;6.43;;;3.10;;
59607;SDS011;45426;44.726;10.390;2022-08-01T05:15:11;5.22;;;2.60;;
59607;SDS011;45426;44.726;10.390;2022-08-01T05:17:37;6.25;;;2.80;;
59607;SDS011;45426;44.726;10.390;2022-08-01T05:20:02;8.32;;;3.15;;
59607;SDS011;45426;44.726;10.390;2022-08-01T05:22:31;6.22;;;3.10;;
59607;SDS011;45426;44.726;10.390;2022-08-01T05:24:57;6.55;;;2.92;;
59607;SDS011;45426;44.726;10.390;2022-08-01T05:27:22;6.30;;;2.88;;
59607;SDS011;45426;44.726;10.390;2022-08-01T05:29:48;8.60;;;2.75;;
59607;SDS011;45426;44.726;10.390;2022-08-01T05:32:13;6.57;;;3.00;;
59607;SDS011;45426;44.726;10.390;2022-08-01T05:34:38;5.93;;;2.90;;
59607;SDS011;45426;44.726;10.390;2022-08-01T05:37:04;4.85;;;2.72;;
59607;SDS011;45426;44.726;10.390;2022-08-01T05:39:29;6.95;;;2.70;;
59607;SDS011;45426;44.726;10.390;2022-08-01T05:41:55;5.07;;;3.03;;
59607;SDS011;45426;44.726;10.390;2022-08-01T05:44:20;8.48;;;3.33;;
59607;SDS011;45426;44.726;10.390;2022-08-01T05:46:46;6.95;;;3.38;;
59607;SDS011;45426;44.726;10.390;2022-08-01T05:49:11;6.45;;;3.00;;
59607;SDS011;45426;44.726;10.390;2022-08-01T05:51:37;7.82;;;3.00;;
59607;SDS011;45426;44.726;10.390;2022-08-01T05:54:02;8.85;;;2.70;;
59607;SDS011;45426;44.726;10.390;2022-08-01T05:56:28;7.65;;;2.83;;
59607;SDS011;45426;44.726;10.390;2022-08-01T05:58:53;10.50;;;3.15;;
59607;SDS011;45426;44.726;10.390;2022-08-01T06:01:19;8.05;;;2.88;;
59607;SDS011;45426;44.726;10.390;2022-08-01T06:03:44;17.65;;;3.60;;
59607;SDS011;45426;44.726;10.390;2022-08-01T06:06:10;10.98;;;2.90;;
59607;SDS011;45426;44.726;10.390;2022-08-01T06:08:36;8.65;;;2.63;;
59607;SDS011;45426;44.726;10.390;2022-08-01T06:11:03;6.50;;;2.70;;
59607;SDS011;45426;44.726;10.390;2022-08-01T06:13:28;4.57;;;2.80;;
59607;SDS011;45426;44.726;10.390;2022-08-01T06:15:54;8.18;;;2.70;;
59607;SDS011;45426;44.726;10.390;2022-08-01T06:18:19;9.00;;;2.70;;
59607;SDS011;45426;44.726;10.390;2022-08-01T06:20:44;4.93;;;2.72;;
59607;SDS011;45426;44.726;10.390;2022-08-01T06:23:10;8.13;;;3.03;;
59607;SDS011;45426;44.726;10.390;2022-08-01T06:25:35;8.88;;;2.80;;
59607;SDS011;45426;44.726;10.390;2022-08-01T06:28:02;7.47;;;2.53;;
59607;SDS011;45426;44.726;10.390;2022-08-01T06:30:27;5.63;;;2.55;;
59607;SDS011;45426;44.726;10.390;2022-08-01T06:32:53;6.22;;;2.60;;
59607;SDS011;45426;44.726;10.390;2022-08-01T06:35:20;4.10;;;2.58;;
59607;SDS011;45426;44.726;10.390;2022-08-01T06:37:46;4.88;;;2.38;;
59607;SDS011;45426;44.726;10.390;2022-08-01T06:40:13;5.22;;;2.78;;
59607;SDS011;45426;44.726;10.390;2022-08-01T06:42:38;6.05;;;3.05;;
59607;SDS011;45426;44.726;10.390;2022-08-01T06:45:08;6.50;;;2.83;;
59607;SDS011;45426;44.726;10.390;2022-08-01T06:47:35;5.88;;;2.80;;
59607;SDS011;45426;44.726;10.390;2022-08-01T06:50:02;3.72;;;2.50;;
59607;SDS011;45426;44.726;10.390;2022-08-01T06:52:28;6.57;;;2.80;;
59607;SDS011;45426;44.726;10.390;2022-08-01T06:54:54;4.22;;;2.50;;
59607;SDS011;45426;44.726;10.390;2022-08-01T06:57:19;6.03;;;2.55;;
59607;SDS011;45426;44.726;10.390;2022-08-01T06:59:45;4.40;;;2.45;;
59607;SDS011;45426;44.726;10.390;2022-08-01T07:02:10;6.47;;;2.53;;
59607;SDS011;45426;44.726;10.390;2022-08-01T07:04:36;4.13;;;2.30;;
59607;SDS011;45426;44.726;10.390;2022-08-01T07:07:01;2.97;;;2.20;;
59607;SDS011;45426;44.726;10.390;2022-08-01T07:09:27;4.32;;;2.38;;
59607;SDS011;45426;44.726;10.390;2022-08-01T07:11:53;4.25;;;2.30;;
59607;SDS011;45426;44.726;10.390;2022-08-01T07:14:19;4.13;;;2.13;;
59607;SDS011;45426;44.726;10.390;2022-08-01T07:16:45;3.35;;;2.20;;
59607;SDS011;45426;44.726;10.390;2022-08-01T07:19:10;3.40;;;2.40;;
59607;SDS011;45426;44.726;10.390;2022-08-01T07:21:36;5.65;;;2.40;;
59607;SDS011;45426;44.726;10.390;2022-08-01T07:24:02;3.58;;;2.10;;
59607;SDS011;45426;44.726;10.390;2022-08-01T07:26:28;4.22;;;2.22;;
59607;SDS011;45426;44.726;10.390;2022-08-01T07:28:53;3.53;;;2.13;;
59607;SDS011;45426;44.726;10.390;2022-08-01T07:31:19;5.18;;;2.33;;
59607;SDS011;45426;44.726;10.390;2022-08-01T07:33:44;5.85;;;2.53;;
59607;SDS011;45426;44.726;10.390;2022-08-01T07:36:10;5.35;;;2.40;;
59607;SDS011;45426;44.726;10.390;2022-08-01T07:38:36;3.47;;;2.45;;
59607;SDS011;45426;44.726;10.390;2022-08-01T07:41:01;3.97;;;2.55;;
59607;SDS011;45426;44.726;10.390;2022-08-01T07:43:27;6.28;;;2.30;;
59607;SDS011;45426;44.726;10.390;2022-08-01T07:45:52;4.75;;;2.47;;
59607;SDS011;45426;44.726;10.390;2022-08-01T07:48:18;4.03;;;2.30;;
59607;SDS011;45426;44.726;10.390;2022-08-01T07:50:45;4.40;;;2.30;;
59607;SDS011;45426;44.726;10.390;2022-08-01T07:53:11;5.13;;;2.20;;
59607;SDS011;45426;44.726;10.390;2022-08-01T07:55:36;4.75;;;2.40;;
59607;SDS011;45426;44.726;10.390;2022-08-01T07:58:02;3.95;;;2.60;;
59607;SDS011;45426;44.726;10.390;2022-08-01T08:00:27;5.07;;;2.50;;
59607;SDS011;45426;44.726;10.390;2022-08-01T08:02:53;4.25;;;2.35;;
59607;SDS011;45426;44.726;10.390;2022-08-01T08:05:19;6.30;;;2.50;;
59607;SDS011;45426;44.726;10.390;2022-08-01T08:07:45;4.22;;;2.55;;
59607;SDS011;45426;44.726;10.390;2022-08-01T08:10:10;4.55;;;2.40;;
59607;SDS011;45426;44.726;10.390;2022-08-01T08:12:36;6.70;;;2.58;;
59607;SDS011;45426;44.726;10.390;2022-08-01T08:15:01;3.38;;;2.15;;
59607;SDS011;45426;44.726;10.390;2022-08-01T08:17:30;7.88;;;2.30;;
59607;SDS011;45426;44.726;10.390;2022-08-01T08:19:57;4.57;;;2.47;;
59607;SDS011;45426;44.726;10.390;2022-08-01T08:22:22;5.22;;;2.50;;
59607;SDS011;45426;44.726;10.390;2022-08-01T08:24:48;4.18;;;2.30;;
59607;SDS011;45426;44.726;10.390;2022-08-01T08:27:14;5.00;;;2.40;;
59607;SDS011;45426;44.726;10.390;2022-08-01T08:29:40;8.68;;;2.78;;
59607;SDS011;45426;44.726;10.390;2022-08-01T08:32:05;3.50;;;2.65;;
59607;SDS011;45426;44.726;10.390;2022-08-01T08:34:31;3.80;;;2.50;;
59607;SDS011;45426;44.726;10.390;2022-08-01T08:36:57;4.60;;;2.53;;
59607;SDS011;45426;44.726;10.390;2022-08-01T08:39:23;3.15;;;2.35;;
59607;SDS011;45426;44.726;10.390;2022-08-01T08:41:48;4.40;;;2.60;;
59607;SDS011;45426;44.726;10.390;2022-08-01T08:44:14;5.07;;;2.60;;
59607;SDS011;45426;44.726;10.390;2022-08-01T08:46:41;5.55;;;2.58;;
59607;SDS011;45426;44.726;10.390;2022-08-01T08:49:12;5.40;;;2.45;;
59607;SDS011;45426;44.726;10.390;2022-08-01T08:51:41;8.18;;;2.65;;
59607;SDS011;45426;44.726;10.390;2022-08-01T08:54:07;6.03;;;2.60;;
59607;SDS011;45426;44.726;10.390;2022-08-01T08:56:35;4.60;;;2.50;;
59607;SDS011;45426;44.726;10.390;2022-08-01T08:59:03;6.88;;;3.22;;
59607;SDS011;45426;44.726;10.390;2022-08-01T09:01:30;4.90;;;2.50;;
59607;SDS011;45426;44.726;10.390;2022-08-01T09:03:57;6.30;;;3.13;;
59607;SDS011;45426;44.726;10.390;2022-08-01T09:06:23;4.88;;;2.50;;
59607;SDS011;45426;44.726;10.390;2022-08-01T09:08:49;6.05;;;2.38;;
59607;SDS011;45426;44.726;10.390;2022-08-01T09:11:15;4.60;;;2.40;;
59607;SDS011;45426;44.726;10.390;2022-08-01T09:13:40;6.72;;;2.65;;
59607;SDS011;45426;44.726;10.390;2022-08-01T09:16:06;4.20;;;2.80;;
59607;SDS011;45426;44.726;10.390;2022-08-01T09:18:38;5.40;;;2.50;;
59607;SDS011;45426;44.726;10.390;2022-08-01T09:21:19;5.38;;;2.92;;
59607;SDS011;45426;44.726;10.390;2022-08-01T09:23:51;6.00;;;2.90;;
59607;SDS011;45426;44.726;10.390;2022-08-01T09:26:22;8.27;;;2.70;;
59607;SDS011;45426;44.726;10.390;2022-08-01T09:28:55;5.80;;;3.05;;
59607;SDS011;45426;44.726;10.390;2022-08-01T09:31:21;7.82;;;3.20;;
59607;SDS011;45426;44.726;10.390;2022-08-01T09:34:04;6.55;;;3.08;;
59607;SDS011;45426;44.726;10.390;2022-08-01T09:36:49;4.23;;;2.97;;
59607;SDS011;45426;44.726;10.390;2022-08-01T09:39:17;6.28;;;2.80;;
59607;SDS011;45426;44.726;10.390;2022-08-01T09:41:44;6.43;;;3.42;;
59607;SDS011;45426;44.726;10.390;2022-08-01T09:44:09;9.32;;;3.47;;
59607;SDS011;45426;44.726;10.390;2022-08-01T09:46:35;5.45;;;3.00;;
59607;SDS011;45426;44.726;10.390;2022-08-01T09:49:05;7.55;;;2.55;;
59607;SDS011;45426;44.726;10.390;2022-08-01T09:53:56;8.40;;;3.72;;
59607;SDS011;45426;44.726;10.390;2022-08-01T09:56:22;7.63;;;3.25;;
59607;SDS011;45426;44.726;10.390;2022-08-01T09:58:55;7.03;;;3.30;;
59607;SDS011;45426;44.726;10.390;2022-08-01T10:04:03;5.93;;;2.90;;
59607;SDS011;45426;44.726;10.390;2022-08-01T10:06:33;5.20;;;2.72;;
59607;SDS011;45426;44.726;10.390;2022-08-01T10:08:59;5.78;;;2.60;;
59607;SDS011;45426;44.726;10.390;2022-08-01T10:11:24;4.53;;;2.72;;
59607;SDS011;45426;44.726;10.390;2022-08-01T10:13:50;4.63;;;2.53;;
59607;SDS011;45426;44.726;10.390;2022-08-01T10:16:16;6.40;;;2.50;;
59607;SDS011;45426;44.726;10.390;2022-08-01T10:18:41;4.95;;;3.05;;
59607;SDS011;45426;44.726;10.390;2022-08-01T10:21:08;4.75;;;2.50;;
59607;SDS011;45426;44.726;10.390;2022-08-01T10:23:35;6.03;;;2.70;;
59607;SDS011;45426;44.726;10.390;2022-08-01T10:26:02;4.28;;;2.67;;
59607;SDS011;45426;44.726;10.390;2022-08-01T10:28:31;6.00;;;2.80;;
59607;SDS011;45426;44.726;10.390;2022-08-01T10:30:59;4.38;;;2.63;;
59607;SDS011;45426;44.726;10.390;2022-08-01T10:33:26;7.07;;;2.67;;
59607;SDS011;45426;44.726;10.390;2022-08-01T10:35:53;6.75;;;2.78;;
59607;SDS011;45426;44.726;10.390;2022-08-01T10:38:19;7.90;;;2.97;;
59607;SDS011;45426;44.726;10.390;2022-08-01T10:40:44;8.13;;;2.70;;
59607;SDS011;45426;44.726;10.390;2022-08-01T10:43:10;6.95;;;2.55;;
59607;SDS011;45426;44.726;10.390;2022-08-01T10:45:36;5.97;;;2.70;;
59607;SDS011;45426;44.726;10.390;2022-08-01T10:53:20;4.65;;;2.33;;
59607;SDS011;45426;44.726;10.390;2022-08-01T10:55:51;8.52;;;2.85;;
59607;SDS011;45426;44.726;10.390;2022-08-01T10:58:37;5.10;;;2.78;;
59607;SDS011;45426;44.726;10.390;2022-08-01T11:03:58;5.95;;;2.72;;
59607;SDS011;45426;44.726;10.390;2022-08-01T11:08:57;9.30;;;3.08;;
59607;SDS011;45426;44.726;10.390;2022-08-01T11:11:23;4.88;;;2.88;;
59607;SDS011;45426;44.726;10.390;2022-08-01T11:14:04;6.05;;;2.92;;
59607;SDS011;45426;44.726;10.390;2022-08-01T11:16:37;4.30;;;2.78;;
59607;SDS011;45426;44.726;10.390;2022-08-01T11:19:03;4.28;;;2.33;;
59607;SDS011;45426;44.726;10.390;2022-08-01T11:30:48;3.50;;;2.28;;
59607;SDS011;45426;44.726;10.390;2022-08-01T11:35:15;4.35;;;2.47;;
59607;SDS011;45426;44.726;10.390;2022-08-01T11:37:41;2.63;;;2.30;;
59607;SDS011;45426;44.726;10.390;2022-08-01T11:42:49;4.80;;;2.80;;
59607;SDS011;45426;44.726;10.390;2022-08-01T11:45:51;2.70;;;2.10;;
59607;SDS011;45426;44.726;10.390;2022-08-01T11:48:21;4.10;;;2.65;;
59607;SDS011;45426;44.726;10.390;2022-08-01T11:50:49;4.75;;;2.28;;
59607;SDS011;45426;44.726;10.390;2022-08-01T11:53:16;4.90;;;2.53;;
59607;SDS011;45426;44.726;10.390;2022-08-01T11:55:47;4.25;;;2.30;;
59607;SDS011;45426;44.726;10.390;2022-08-01T11:58:14;3.83;;;2.30;;
59607;SDS011;45426;44.726;10.390;2022-08-01T12:00:40;3.88;;;2.33;;
59607;SDS011;45426;44.726;10.390;2022-08-01T12:03:07;7.07;;;2.55;;
59607;SDS011;45426;44.726;10.390;2022-08-01T12:05:34;4.53;;;2.08;;
59607;SDS011;45426;44.726;10.390;2022-08-01T12:08:02;2.67;;;2.40;;
59607;SDS011;45426;44.726;10.390;2022-08-01T12:10:29;3.03;;;2.15;;
59607;SDS011;45426;44.726;10.390;2022-08-01T12:13:01;3.83;;;2.05;;
59607;SDS011;45426;44.726;10.390;2022-08-01T12:15:30;2.58;;;2.08;;
59607;SDS011;45426;44.726;10.390;2022-08-01T12:17:58;3.42;;;2.30;;
59607;SDS011;45426;44.726;10.390;2022-08-01T12:20:29;3.35;;;2.15;;
59607;SDS011;45426;44.726;10.390;2022-08-01T12:22:56;5.03;;;2.28;;
59607;SDS011;45426;44.726;10.390;2022-08-01T12:25:23;2.70;;;2.13;;
59607;SDS011;45426;44.726;10.390;2022-08-01T12:27:49;2.30;;;2.00;;
59607;SDS011;45426;44.726;10.390;2022-08-01T12:30:18;5.05;;;2.30;;
59607;SDS011;45426;44.726;10.390;2022-08-01T12:32:47;5.05;;;2.00;;
59607;SDS011;45426;44.726;10.390;2022-08-01T12:35:14;4.60;;;2.00;;
59607;SDS011;45426;44.726;10.390;2022-08-01T12:37:48;2.92;;;2.13;;
59607;SDS011;45426;44.726;10.390;2022-08-01T12:42:41;2.65;;;2.20;;
59607;SDS011;45426;44.726;10.390;2022-08-01T12:45:09;4.43;;;2.35;;
59607;SDS011;45426;44.726;10.390;2022-08-01T12:47:37;2.45;;;2.10;;
59607;SDS011;45426;44.726;10.390;2022-08-01T12:50:14;6.07;;;2.30;;
59607;SDS011;45426;44.726;10.390;2022-08-01T12:52:44;2.65;;;2.00;;
59607;SDS011;45426;44.726;10.390;2022-08-01T12:56:10;3.15;;;1.90;;
59607;SDS011;45426;44.726;10.390;2022-08-01T12:58:15;3.30;;;2.00;;
59607;SDS011;45426;44.726;10.390;2022-08-01T13:00:42;3.28;;;2.10;;
59607;SDS011;45426;44.726;10.390;2022-08-01T13:03:10;2.85;;;2.50;;
59607;SDS011;45426;44.726;10.390;2022-08-01T13:05:48;3.35;;;2.00;;
59607;SDS011;45426;44.726;10.390;2022-08-01T13:08:30;2.88;;;2.00;;
59607;SDS011;45426;44.726;10.390;2022-08-01T13:11:01;3.97;;;2.30;;
59607;SDS011;45426;44.726;10.390;2022-08-01T13:13:39;3.35;;;2.00;;
59607;SDS011;45426;44.726;10.390;2022-08-01T13:16:05;2.17;;;2.05;;
59607;SDS011;45426;44.726;10.390;2022-08-01T13:18:33;2.83;;;2.00;;
59607;SDS011;45426;44.726;10.390;2022-08-01T13:21:15;3.03;;;2.20;;
59607;SDS011;45426;44.726;10.390;2022-08-01T13:23:42;4.25;;;1.90;;
59607;SDS011;45426;44.726;10.390;2022-08-01T13:29:13;2.55;;;2.00;;
59607;SDS011;45426;44.726;10.390;2022-08-01T13:31:40;4.95;;;2.00;;
59607;SDS011;45426;44.726;10.390;2022-08-01T13:34:06;2.50;;;1.88;;
59607;SDS011;45426;44.726;10.390;2022-08-01T13:36:32;3.88;;;1.95;;
59607;SDS011;45426;44.726;10.390;2022-08-01T13:38:58;2.70;;;1.90;;
59607;SDS011;45426;44.726;10.390;2022-08-01T13:41:43;3.58;;;2.13;;
59607;SDS011;45426;44.726;10.390;2022-08-01T13:44:10;4.70;;;2.00;;
59607;SDS011;45426;44.726;10.390;2022-08-01T13:46:39;4.35;;;1.98;;
59607;SDS011;45426;44.726;10.390;2022-08-01T13:49:07;4.00;;;2.10;;
59607;SDS011;45426;44.726;10.390;2022-08-01T13:51:34;2.38;;;1.80;;
59607;SDS011;45426;44.726;10.390;2022-08-01T13:54:00;3.47;;;2.00;;
59607;SDS011;45426;44.726;10.390;2022-08-01T13:56:25;4.15;;;2.03;;
59607;SDS011;45426;44.726;10.390;2022-08-01T13:58:52;3.92;;;2.10;;
59607;SDS011;45426;44.726;10.390;2022-08-01T14:01:18;2.25;;;1.90;;
59607;SDS011;45426;44.726;10.390;2022-08-01T14:03:45;6.32;;;2.13;;
59607;SDS011;45426;44.726;10.390;2022-08-01T14:06:11;3.33;;;1.80;;
59607;SDS011;45426;44.726;10.390;2022-08-01T14:08:37;2.58;;;1.90;;
59607;SDS011;45426;44.726;10.390;2022-08-01T14:11:02;3.30;;;1.95;;
59607;SDS011;45426;44.726;10.390;2022-08-01T14:13:28;3.85;;;1.90;;
59607;SDS011;45426;44.726;10.390;2022-08-01T14:15:53;2.38;;;2.00;;
59607;SDS011;45426;44.726;10.390;2022-08-01T14:18:19;3.15;;;1.90;;
59607;SDS011;45426;44.726;10.390;2022-08-01T14:20:45;2.80;;;2.00;;
59607;SDS011;45426;44.726;10.390;2022-08-01T14:23:11;4.50;;;1.90;;
59607;SDS011;45426;44.726;10.390;2022-08-01T14:25:37;4.65;;;1.90;;
59607;SDS011;45426;44.726;10.390;2022-08-01T14:28:04;2.97;;;1.98;;
59607;SDS011;45426;44.726;10.390;2022-08-01T14:30:29;3.35;;;1.80;;
59607;SDS011;45426;44.726;10.390;2022-08-01T14:32:56;3.65;;;2.00;;
59607;SDS011;45426;44.726;10.390;2022-08-01T14:35:21;5.63;;;2.25;;
59607;SDS011;45426;44.726;10.390;2022-08-01T14:37:47;3.00;;;2.00;;
59607;SDS011;45426;44.726;10.390;2022-08-01T14:40:12;3.35;;;1.95;;
59607;SDS011;45426;44.726;10.390;2022-08-01T14:42:38;3.08;;;1.90;;
59607;SDS011;45426;44.726;10.390;2022-08-01T14:45:04;2.88;;;2.42;;
59607;SDS011;45426;44.726;10.390;2022-08-01T14:47:40;4.47;;;2.33;;
59607;SDS011;45426;44.726;10.390;2022-08-01T14:50:07;5.90;;;2.20;;
59607;SDS011;45426;44.726;10.390;2022-08-01T14:52:37;4.50;;;1.95;;
59607;SDS011;45426;44.726;10.390;2022-08-01T14:55:05;4.00;;;2.20;;
59607;SDS011;45426;44.726;10.390;2022-08-01T14:57:31;2.10;;;1.88;;
59607;SDS011;45426;44.726;10.390;2022-08-01T14:59:57;3.13;;;2.25;;
59607;SDS011;45426;44.726;10.390;2022-08-01T15:02:22;4.00;;;1.83;;
59607;SDS011;45426;44.726;10.390;2022-08-01T15:04:48;3.28;;;2.00;;
59607;SDS011;45426;44.726;10.390;2022-08-01T15:07:14;2.92;;;1.90;;
59607;SDS011;45426;44.726;10.390;2022-08-01T15:09:41;3.22;;;2.13;;
59607;SDS011;45426;44.726;10.390;2022-08-01T15:12:06;5.40;;;2.53;;
59607;SDS011;45426;44.726;10.390;2022-08-01T15:14:32;3.00;;;2.20;;
59607;SDS011;45426;44.726;10.390;2022-08-01T15:17:13;6.10;;;2.13;;
59607;SDS011;45426;44.726;10.390;2022-08-01T15:19:54;2.20;;;1.75;;
59607;SDS011;45426;44.726;10.390;2022-08-01T15:22:21;3.38;;;2.03;;
59607;SDS011;45426;44.726;10.390;2022-08-01T15:24:48;2.35;;;2.10;;
59607;SDS011;45426;44.726;10.390;2022-08-01T15:27:14;7.20;;;2.17;;
59607;SDS011;45426;44.726;10.390;2022-08-01T15:29:40;3.33;;;2.08;;
59607;SDS011;45426;44.726;10.390;2022-08-01T15:32:05;3.70;;;2.13;;
59607;SDS011;45426;44.726;10.390;2022-08-01T15:34:35;7.35;;;2.40;;
59607;SDS011;45426;44.726;10.390;2022-08-01T15:37:02;4.00;;;2.15;;
59607;SDS011;45426;44.726;10.390;2022-08-01T15:39:28;4.47;;;2.05;;
59607;SDS011;45426;44.726;10.390;2022-08-01T15:41:57;3.15;;;2.30;;
59607;SDS011;45426;44.726;10.390;2022-08-01T15:44:23;5.47;;;2.42;;
59607;SDS011;45426;44.726;10.390;2022-08-01T15:46:48;5.53;;;2.40;;
59607;SDS011;45426;44.726;10.390;2022-08-01T15:49:15;3.22;;;2.10;;
59607;SDS011;45426;44.726;10.390;2022-08-01T15:51:41;4.18;;;2.10;;
59607;SDS011;45426;44.726;10.390;2022-08-01T15:54:07;3.33;;;2.10;;
59607;SDS011;45426;44.726;10.390;2022-08-01T15:56:34;5.82;;;2.40;;